Clarkia, Idaho
Current Conditions -  °F | °C
As of 11:33 PM on Wednesday 17 Dec 2014 (Local Time) from KMLP Reporting Station
Haze Haze  
Wind Chill: 27°   Ceiling: 200
Heat Index: 27°   Visibility: 5mi
Dew Point: 27°   Wind: 0mph
Humidity: 100%   Direction: NA
Pressure: 29.89"   Gusts: NA
Location:  47.01°N, 116.25°W
Report Text: KMLP 180733Z AUTO 00000KT 5SM BR OVC002 M03/M03 A2989 RMK AO2 SNE31 P0000 T10281028
Loading
Personal Weather Stations






























Interactive Weather Map New forecast layout! Learn more

10-Day Weather Forecast

Advertisements
Track Severe Weather on mobile